sensor_id;sensor_type;location;lat;lon;timestamp;P1;durP1;ratioP1;P2;durP2;ratioP2
4397;SDS011;2213;49.720;7.296;2022-07-30T00:01:24;8.77;;;3.40;;
4397;SDS011;2213;49.720;7.296;2022-07-30T00:03:53;6.97;;;4.00;;
4397;SDS011;2213;49.720;7.296;2022-07-30T00:06:23;3.87;;;3.00;;
4397;SDS011;2213;49.720;7.296;2022-07-30T00:08:51;6.30;;;3.93;;
4397;SDS011;2213;49.720;7.296;2022-07-30T00:11:20;9.47;;;3.33;;
4397;SDS011;2213;49.720;7.296;2022-07-30T00:13:53;5.60;;;2.73;;
4397;SDS011;2213;49.720;7.296;2022-07-30T00:16:21;4.60;;;2.80;;
4397;SDS011;2213;49.720;7.296;2022-07-30T00:18:53;8.87;;;3.50;;
4397;SDS011;2213;49.720;7.296;2022-07-30T00:21:22;8.23;;;3.10;;
4397;SDS011;2213;49.720;7.296;2022-07-30T00:24:04;6.20;;;3.43;;
4397;SDS011;2213;49.720;7.296;2022-07-30T00:26:34;6.43;;;2.83;;
4397;SDS011;2213;49.720;7.296;2022-07-30T00:29:03;6.20;;;2.60;;
4397;SDS011;2213;49.720;7.296;2022-07-30T00:31:33;19.03;;;3.57;;
4397;SDS011;2213;49.720;7.296;2022-07-30T00:34:02;18.93;;;4.50;;
4397;SDS011;2213;49.720;7.296;2022-07-30T00:36:30;6.30;;;3.60;;
4397;SDS011;2213;49.720;7.296;2022-07-30T00:39:02;7.47;;;3.17;;
4397;SDS011;2213;49.720;7.296;2022-07-30T00:41:31;3.53;;;3.10;;
4397;SDS011;2213;49.720;7.296;2022-07-30T00:44:03;4.40;;;2.60;;
4397;SDS011;2213;49.720;7.296;2022-07-30T00:46:31;6.13;;;3.03;;
4397;SDS011;2213;49.720;7.296;2022-07-30T00:49:01;8.33;;;3.53;;
4397;SDS011;2213;49.720;7.296;2022-07-30T00:51:33;3.40;;;2.87;;
4397;SDS011;2213;49.720;7.296;2022-07-30T00:54:02;7.67;;;3.50;;
4397;SDS011;2213;49.720;7.296;2022-07-30T00:56:32;3.80;;;2.90;;
4397;SDS011;2213;49.720;7.296;2022-07-30T00:59:00;6.77;;;3.07;;
4397;SDS011;2213;49.720;7.296;2022-07-30T01:01:30;4.90;;;3.10;;
4397;SDS011;2213;49.720;7.296;2022-07-30T01:04:01;5.27;;;3.07;;
4397;SDS011;2213;49.720;7.296;2022-07-30T01:06:30;7.13;;;3.07;;
4397;SDS011;2213;49.720;7.296;2022-07-30T01:09:00;4.90;;;3.27;;
4397;SDS011;2213;49.720;7.296;2022-07-30T01:11:30;7.63;;;2.83;;
4397;SDS011;2213;49.720;7.296;2022-07-30T01:14:04;3.50;;;3.20;;
4397;SDS011;2213;49.720;7.296;2022-07-30T01:16:36;4.53;;;2.80;;
4397;SDS011;2213;49.720;7.296;2022-07-30T01:19:10;4.33;;;2.70;;
4397;SDS011;2213;49.720;7.296;2022-07-30T01:22:06;6.97;;;3.90;;
4397;SDS011;2213;49.720;7.296;2022-07-30T01:24:43;5.13;;;3.47;;
4397;SDS011;2213;49.720;7.296;2022-07-30T01:27:25;11.00;;;3.03;;
4397;SDS011;2213;49.720;7.296;2022-07-30T01:29:57;3.50;;;2.90;;
4397;SDS011;2213;49.720;7.296;2022-07-30T01:32:32;4.80;;;3.40;;
4397;SDS011;2213;49.720;7.296;2022-07-30T01:35:03;3.90;;;2.67;;
4397;SDS011;2213;49.720;7.296;2022-07-30T01:37:38;6.10;;;2.90;;
4397;SDS011;2213;49.720;7.296;2022-07-30T01:40:10;4.70;;;2.70;;
4397;SDS011;2213;49.720;7.296;2022-07-30T01:42:42;3.63;;;2.87;;
4397;SDS011;2213;49.720;7.296;2022-07-30T01:45:17;5.23;;;3.10;;
4397;SDS011;2213;49.720;7.296;2022-07-30T01:47:48;5.27;;;2.90;;
4397;SDS011;2213;49.720;7.296;2022-07-30T01:50:20;5.87;;;3.00;;
4397;SDS011;2213;49.720;7.296;2022-07-30T01:52:51;5.07;;;2.60;;
4397;SDS011;2213;49.720;7.296;2022-07-30T01:55:24;4.27;;;3.00;;
4397;SDS011;2213;49.720;7.296;2022-07-30T01:58:02;5.03;;;2.80;;
4397;SDS011;2213;49.720;7.296;2022-07-30T02:00:35;6.27;;;2.90;;
4397;SDS011;2213;49.720;7.296;2022-07-30T02:03:07;3.90;;;2.87;;
4397;SDS011;2213;49.720;7.296;2022-07-30T02:05:39;7.30;;;3.63;;
4397;SDS011;2213;49.720;7.296;2022-07-30T02:08:12;5.03;;;3.10;;
4397;SDS011;2213;49.720;7.296;2022-07-30T02:10:50;8.23;;;3.17;;
4397;SDS011;2213;49.720;7.296;2022-07-30T02:13:28;6.13;;;3.30;;
4397;SDS011;2213;49.720;7.296;2022-07-30T02:16:02;3.43;;;2.90;;
4397;SDS011;2213;49.720;7.296;2022-07-30T02:18:43;5.03;;;3.00;;
4397;SDS011;2213;49.720;7.296;2022-07-30T02:21:24;4.53;;;3.03;;
4397;SDS011;2213;49.720;7.296;2022-07-30T02:24:02;6.33;;;2.97;;
4397;SDS011;2213;49.720;7.296;2022-07-30T02:26:40;3.83;;;2.80;;
4397;SDS011;2213;49.720;7.296;2022-07-30T02:29:13;4.20;;;2.80;;
4397;SDS011;2213;49.720;7.296;2022-07-30T02:31:46;3.90;;;2.70;;
4397;SDS011;2213;49.720;7.296;2022-07-30T02:34:17;4.30;;;2.83;;
4397;SDS011;2213;49.720;7.296;2022-07-30T02:36:49;3.30;;;2.50;;
4397;SDS011;2213;49.720;7.296;2022-07-30T02:39:21;3.77;;;2.97;;
4397;SDS011;2213;49.720;7.296;2022-07-30T02:41:51;2.80;;;2.50;;
4397;SDS011;2213;49.720;7.296;2022-07-30T02:44:24;4.17;;;2.47;;
4397;SDS011;2213;49.720;7.296;2022-07-30T02:46:56;3.83;;;2.60;;
4397;SDS011;2213;49.720;7.296;2022-07-30T02:49:30;5.23;;;3.20;;
4397;SDS011;2213;49.720;7.296;2022-07-30T02:52:03;4.03;;;3.47;;
4397;SDS011;2213;49.720;7.296;2022-07-30T02:54:37;6.53;;;3.80;;
4397;SDS011;2213;49.720;7.296;2022-07-30T02:57:08;8.20;;;3.00;;
4397;SDS011;2213;49.720;7.296;2022-07-30T02:59:40;4.30;;;2.90;;
4397;SDS011;2213;49.720;7.296;2022-07-30T03:02:11;4.50;;;3.10;;
4397;SDS011;2213;49.720;7.296;2022-07-30T03:04:42;5.93;;;3.43;;
4397;SDS011;2213;49.720;7.296;2022-07-30T03:07:14;4.90;;;3.47;;
4397;SDS011;2213;49.720;7.296;2022-07-30T03:09:44;3.60;;;2.57;;
4397;SDS011;2213;49.720;7.296;2022-07-30T03:12:17;10.37;;;3.20;;
4397;SDS011;2213;49.720;7.296;2022-07-30T03:14:49;3.97;;;3.00;;
4397;SDS011;2213;49.720;7.296;2022-07-30T03:17:19;6.90;;;3.10;;
4397;SDS011;2213;49.720;7.296;2022-07-30T03:19:52;3.50;;;3.03;;
4397;SDS011;2213;49.720;7.296;2022-07-30T03:22:24;4.13;;;3.00;;
4397;SDS011;2213;49.720;7.296;2022-07-30T03:24:58;6.20;;;3.13;;
4397;SDS011;2213;49.720;7.296;2022-07-30T03:27:29;3.87;;;3.27;;
4397;SDS011;2213;49.720;7.296;2022-07-30T03:30:04;5.97;;;3.43;;
4397;SDS011;2213;49.720;7.296;2022-07-30T03:32:36;4.73;;;3.20;;
4397;SDS011;2213;49.720;7.296;2022-07-30T03:35:08;10.43;;;3.60;;
4397;SDS011;2213;49.720;7.296;2022-07-30T03:37:42;4.40;;;3.27;;
4397;SDS011;2213;49.720;7.296;2022-07-30T03:40:13;4.37;;;3.20;;
4397;SDS011;2213;49.720;7.296;2022-07-30T03:42:43;7.20;;;2.87;;
4397;SDS011;2213;49.720;7.296;2022-07-30T03:45:14;5.60;;;2.93;;
4397;SDS011;2213;49.720;7.296;2022-07-30T03:47:45;3.07;;;2.77;;
4397;SDS011;2213;49.720;7.296;2022-07-30T03:50:16;3.43;;;2.97;;
4397;SDS011;2213;49.720;7.296;2022-07-30T03:52:45;10.70;;;3.93;;
4397;SDS011;2213;49.720;7.296;2022-07-30T03:55:16;4.00;;;3.20;;
4397;SDS011;2213;49.720;7.296;2022-07-30T03:57:45;14.27;;;3.60;;
4397;SDS011;2213;49.720;7.296;2022-07-30T04:00:15;8.40;;;3.37;;
4397;SDS011;2213;49.720;7.296;2022-07-30T04:02:45;3.83;;;3.03;;
4397;SDS011;2213;49.720;7.296;2022-07-30T04:05:14;4.17;;;3.03;;
4397;SDS011;2213;49.720;7.296;2022-07-30T04:07:43;6.33;;;3.40;;
4397;SDS011;2213;49.720;7.296;2022-07-30T04:10:12;6.10;;;3.37;;
4397;SDS011;2213;49.720;7.296;2022-07-30T04:12:42;6.37;;;3.77;;
4397;SDS011;2213;49.720;7.296;2022-07-30T04:15:11;4.33;;;3.40;;
4397;SDS011;2213;49.720;7.296;2022-07-30T04:18:02;3.87;;;3.50;;
4397;SDS011;2213;49.720;7.296;2022-07-30T04:20:35;5.93;;;3.33;;
4397;SDS011;2213;49.720;7.296;2022-07-30T04:23:09;4.43;;;2.97;;
4397;SDS011;2213;49.720;7.296;2022-07-30T04:25:40;4.70;;;3.17;;
4397;SDS011;2213;49.720;7.296;2022-07-30T04:28:11;3.60;;;3.00;;
4397;SDS011;2213;49.720;7.296;2022-07-30T04:30:42;4.13;;;3.13;;
4397;SDS011;2213;49.720;7.296;2022-07-30T04:33:14;5.30;;;2.90;;
4397;SDS011;2213;49.720;7.296;2022-07-30T04:35:43;19.67;;;3.90;;
4397;SDS011;2213;49.720;7.296;2022-07-30T04:38:18;6.23;;;3.50;;
4397;SDS011;2213;49.720;7.296;2022-07-30T04:40:47;5.03;;;3.40;;
4397;SDS011;2213;49.720;7.296;2022-07-30T04:43:16;4.73;;;3.03;;
4397;SDS011;2213;49.720;7.296;2022-07-30T04:45:46;5.37;;;4.00;;
4397;SDS011;2213;49.720;7.296;2022-07-30T04:48:17;12.63;;;3.60;;
4397;SDS011;2213;49.720;7.296;2022-07-30T04:50:47;5.67;;;3.20;;
4397;SDS011;2213;49.720;7.296;2022-07-30T04:53:20;5.00;;;4.00;;
4397;SDS011;2213;49.720;7.296;2022-07-30T04:55:49;7.90;;;4.13;;
4397;SDS011;2213;49.720;7.296;2022-07-30T04:58:20;6.00;;;3.63;;
4397;SDS011;2213;49.720;7.296;2022-07-30T05:00:52;4.50;;;3.23;;
4397;SDS011;2213;49.720;7.296;2022-07-30T05:03:26;5.50;;;4.17;;
4397;SDS011;2213;49.720;7.296;2022-07-30T05:05:58;4.60;;;3.70;;
4397;SDS011;2213;49.720;7.296;2022-07-30T05:08:29;4.50;;;3.37;;
4397;SDS011;2213;49.720;7.296;2022-07-30T05:10:57;5.10;;;3.63;;
4397;SDS011;2213;49.720;7.296;2022-07-30T05:13:26;6.50;;;3.10;;
4397;SDS011;2213;49.720;7.296;2022-07-30T05:16:04;8.60;;;4.03;;
4397;SDS011;2213;49.720;7.296;2022-07-30T05:18:36;6.37;;;3.70;;
4397;SDS011;2213;49.720;7.296;2022-07-30T05:21:05;6.57;;;4.10;;
4397;SDS011;2213;49.720;7.296;2022-07-30T05:23:35;4.63;;;3.70;;
4397;SDS011;2213;49.720;7.296;2022-07-30T05:26:04;6.07;;;4.07;;
4397;SDS011;2213;49.720;7.296;2022-07-30T05:28:33;6.60;;;4.43;;
4397;SDS011;2213;49.720;7.296;2022-07-30T05:31:02;5.40;;;3.20;;
4397;SDS011;2213;49.720;7.296;2022-07-30T05:33:35;4.10;;;3.50;;
4397;SDS011;2213;49.720;7.296;2022-07-30T05:36:08;4.90;;;3.27;;
4397;SDS011;2213;49.720;7.296;2022-07-30T05:38:37;4.63;;;3.80;;
4397;SDS011;2213;49.720;7.296;2022-07-30T05:41:06;6.97;;;3.73;;
4397;SDS011;2213;49.720;7.296;2022-07-30T05:43:54;5.63;;;3.87;;
4397;SDS011;2213;49.720;7.296;2022-07-30T05:46:24;5.67;;;3.70;;
4397;SDS011;2213;49.720;7.296;2022-07-30T05:48:54;7.80;;;4.10;;
4397;SDS011;2213;49.720;7.296;2022-07-30T05:51:23;4.80;;;3.23;;
4397;SDS011;2213;49.720;7.296;2022-07-30T05:53:52;5.40;;;3.73;;
4397;SDS011;2213;49.720;7.296;2022-07-30T05:56:21;3.60;;;3.20;;
4397;SDS011;2213;49.720;7.296;2022-07-30T05:58:49;4.93;;;3.13;;
4397;SDS011;2213;49.720;7.296;2022-07-30T06:01:18;6.87;;;3.87;;
4397;SDS011;2213;49.720;7.296;2022-07-30T06:03:47;7.40;;;3.40;;
4397;SDS011;2213;49.720;7.296;2022-07-30T06:06:17;4.83;;;3.27;;
4397;SDS011;2213;49.720;7.296;2022-07-30T06:08:48;5.63;;;3.60;;
4397;SDS011;2213;49.720;7.296;2022-07-30T06:11:17;7.50;;;3.40;;
4397;SDS011;2213;49.720;7.296;2022-07-30T06:13:46;7.20;;;3.30;;
4397;SDS011;2213;49.720;7.296;2022-07-30T06:16:15;4.03;;;3.63;;
4397;SDS011;2213;49.720;7.296;2022-07-30T06:18:44;4.93;;;3.40;;
4397;SDS011;2213;49.720;7.296;2022-07-30T06:21:14;9.73;;;3.53;;
4397;SDS011;2213;49.720;7.296;2022-07-30T06:23:45;4.40;;;3.70;;
4397;SDS011;2213;49.720;7.296;2022-07-30T06:26:14;7.27;;;3.63;;
4397;SDS011;2213;49.720;7.296;2022-07-30T06:28:43;14.03;;;3.77;;
4397;SDS011;2213;49.720;7.296;2022-07-30T06:31:12;6.77;;;4.37;;
4397;SDS011;2213;49.720;7.296;2022-07-30T06:33:41;12.13;;;3.30;;
4397;SDS011;2213;49.720;7.296;2022-07-30T06:36:10;5.97;;;3.63;;
4397;SDS011;2213;49.720;7.296;2022-07-30T06:38:40;6.63;;;4.77;;
4397;SDS011;2213;49.720;7.296;2022-07-30T06:41:10;8.33;;;3.77;;
4397;SDS011;2213;49.720;7.296;2022-07-30T06:43:41;3.80;;;3.20;;
4397;SDS011;2213;49.720;7.296;2022-07-30T06:46:10;6.10;;;3.73;;
4397;SDS011;2213;49.720;7.296;2022-07-30T06:48:38;7.50;;;3.80;;
4397;SDS011;2213;49.720;7.296;2022-07-30T06:51:08;7.50;;;3.57;;
4397;SDS011;2213;49.720;7.296;2022-07-30T06:53:36;7.60;;;3.00;;
4397;SDS011;2213;49.720;7.296;2022-07-30T06:56:08;4.90;;;3.63;;
4397;SDS011;2213;49.720;7.296;2022-07-30T06:58:38;4.27;;;3.47;;
4397;SDS011;2213;49.720;7.296;2022-07-30T07:01:07;3.20;;;2.90;;
4397;SDS011;2213;49.720;7.296;2022-07-30T07:03:37;9.57;;;3.00;;
4397;SDS011;2213;49.720;7.296;2022-07-30T07:06:06;4.10;;;3.17;;
4397;SDS011;2213;49.720;7.296;2022-07-30T07:08:35;8.10;;;3.23;;
4397;SDS011;2213;49.720;7.296;2022-07-30T07:11:04;3.60;;;3.07;;
4397;SDS011;2213;49.720;7.296;2022-07-30T07:13:33;8.53;;;3.57;;
4397;SDS011;2213;49.720;7.296;2022-07-30T07:16:04;3.50;;;2.57;;
4397;SDS011;2213;49.720;7.296;2022-07-30T07:18:33;5.17;;;3.00;;
4397;SDS011;2213;49.720;7.296;2022-07-30T07:21:02;6.90;;;3.40;;
4397;SDS011;2213;49.720;7.296;2022-07-30T07:23:33;4.17;;;3.10;;
4397;SDS011;2213;49.720;7.296;2022-07-30T07:26:08;7.03;;;3.23;;
4397;SDS011;2213;49.720;7.296;2022-07-30T07:28:38;5.17;;;3.07;;
4397;SDS011;2213;49.720;7.296;2022-07-30T07:31:09;5.83;;;3.20;;
4397;SDS011;2213;49.720;7.296;2022-07-30T07:33:59;7.07;;;3.40;;
4397;SDS011;2213;49.720;7.296;2022-07-30T07:36:27;4.00;;;2.90;;
4397;SDS011;2213;49.720;7.296;2022-07-30T07:38:56;6.13;;;3.30;;
4397;SDS011;2213;49.720;7.296;2022-07-30T07:41:26;5.77;;;3.20;;
4397;SDS011;2213;49.720;7.296;2022-07-30T07:44:14;4.20;;;3.07;;
4397;SDS011;2213;49.720;7.296;2022-07-30T07:46:45;3.93;;;2.50;;
4397;SDS011;2213;49.720;7.296;2022-07-30T07:49:14;9.20;;;3.00;;
4397;SDS011;2213;49.720;7.296;2022-07-30T07:51:44;7.33;;;3.20;;
4397;SDS011;2213;49.720;7.296;2022-07-30T07:54:14;5.20;;;2.60;;
4397;SDS011;2213;49.720;7.296;2022-07-30T07:56:48;4.47;;;2.20;;
4397;SDS011;2213;49.720;7.296;2022-07-30T07:59:22;11.43;;;2.60;;
4397;SDS011;2213;49.720;7.296;2022-07-30T08:02:07;4.13;;;2.60;;
4397;SDS011;2213;49.720;7.296;2022-07-30T08:04:38;13.47;;;3.13;;
4397;SDS011;2213;49.720;7.296;2022-07-30T08:07:07;4.93;;;2.57;;
4397;SDS011;2213;49.720;7.296;2022-07-30T08:09:38;4.47;;;3.00;;
4397;SDS011;2213;49.720;7.296;2022-07-30T08:12:10;6.20;;;2.63;;
4397;SDS011;2213;49.720;7.296;2022-07-30T08:14:39;5.33;;;2.50;;
4397;SDS011;2213;49.720;7.296;2022-07-30T08:17:10;5.33;;;3.03;;
4397;SDS011;2213;49.720;7.296;2022-07-30T08:19:39;18.70;;;2.47;;
4397;SDS011;2213;49.720;7.296;2022-07-30T08:22:08;4.13;;;2.93;;
4397;SDS011;2213;49.720;7.296;2022-07-30T08:24:36;6.00;;;3.00;;
4397;SDS011;2213;49.720;7.296;2022-07-30T08:27:06;4.73;;;2.97;;
4397;SDS011;2213;49.720;7.296;2022-07-30T08:29:35;5.20;;;2.80;;
4397;SDS011;2213;49.720;7.296;2022-07-30T08:32:04;3.80;;;2.97;;
4397;SDS011;2213;49.720;7.296;2022-07-30T08:34:35;2.17;;;1.90;;
4397;SDS011;2213;49.720;7.296;2022-07-30T08:37:03;2.77;;;2.20;;
4397;SDS011;2213;49.720;7.296;2022-07-30T08:39:32;5.60;;;2.93;;
4397;SDS011;2213;49.720;7.296;2022-07-30T08:42:01;5.10;;;2.80;;
4397;SDS011;2213;49.720;7.296;2022-07-30T08:44:31;5.43;;;2.50;;
4397;SDS011;2213;49.720;7.296;2022-07-30T08:47:04;6.83;;;2.20;;
4397;SDS011;2213;49.720;7.296;2022-07-30T08:49:38;3.30;;;2.40;;
4397;SDS011;2213;49.720;7.296;2022-07-30T08:52:09;5.90;;;1.90;;
4397;SDS011;2213;49.720;7.296;2022-07-30T08:54:38;6.80;;;2.77;;
4397;SDS011;2213;49.720;7.296;2022-07-30T08:57:10;8.43;;;2.60;;
4397;SDS011;2213;49.720;7.296;2022-07-30T08:59:40;9.57;;;2.77;;
4397;SDS011;2213;49.720;7.296;2022-07-30T09:02:27;4.90;;;2.37;;
4397;SDS011;2213;49.720;7.296;2022-07-30T09:04:59;7.70;;;2.60;;
4397;SDS011;2213;49.720;7.296;2022-07-30T09:07:30;7.60;;;2.23;;
4397;SDS011;2213;49.720;7.296;2022-07-30T09:10:00;6.50;;;2.30;;
4397;SDS011;2213;49.720;7.296;2022-07-30T09:12:32;3.40;;;2.37;;
4397;SDS011;2213;49.720;7.296;2022-07-30T09:15:05;4.93;;;2.10;;
4397;SDS011;2213;49.720;7.296;2022-07-30T09:17:46;2.30;;;1.93;;
4397;SDS011;2213;49.720;7.296;2022-07-30T09:20:24;3.03;;;1.63;;
4397;SDS011;2213;49.720;7.296;2022-07-30T09:22:56;10.70;;;2.43;;
4397;SDS011;2213;49.720;7.296;2022-07-30T09:25:34;4.20;;;1.90;;
4397;SDS011;2213;49.720;7.296;2022-07-30T09:28:06;8.80;;;2.07;;
4397;SDS011;2213;49.720;7.296;2022-07-30T09:30:42;3.50;;;2.03;;
4397;SDS011;2213;49.720;7.296;2022-07-30T09:33:15;6.60;;;2.10;;
4397;SDS011;2213;49.720;7.296;2022-07-30T09:36:02;2.80;;;2.00;;
4397;SDS011;2213;49.720;7.296;2022-07-30T09:38:43;4.57;;;1.70;;
4397;SDS011;2213;49.720;7.296;2022-07-30T09:41:15;2.20;;;1.87;;
4397;SDS011;2213;49.720;7.296;2022-07-30T09:44:04;4.07;;;2.13;;
4397;SDS011;2213;49.720;7.296;2022-07-30T09:46:41;4.50;;;1.90;;
4397;SDS011;2213;49.720;7.296;2022-07-30T09:49:13;4.30;;;2.10;;
4397;SDS011;2213;49.720;7.296;2022-07-30T09:51:46;2.13;;;1.70;;
4397;SDS011;2213;49.720;7.296;2022-07-30T09:54:27;3.20;;;1.80;;
4397;SDS011;2213;49.720;7.296;2022-07-30T09:57:18;2.90;;;1.90;;
4397;SDS011;2213;49.720;7.296;2022-07-30T09:59:54;5.80;;;2.10;;
4397;SDS011;2213;49.720;7.296;2022-07-30T10:02:28;6.33;;;1.70;;
4397;SDS011;2213;49.720;7.296;2022-07-30T10:05:08;7.70;;;1.90;;
4397;SDS011;2213;49.720;7.296;2022-07-30T10:07:48;7.40;;;1.83;;
4397;SDS011;2213;49.720;7.296;2022-07-30T10:10:20;5.30;;;1.50;;
4397;SDS011;2213;49.720;7.296;2022-07-30T10:12:52;4.93;;;1.50;;
4397;SDS011;2213;49.720;7.296;2022-07-30T10:15:30;4.10;;;1.70;;
4397;SDS011;2213;49.720;7.296;2022-07-30T10:18:02;3.50;;;1.70;;
4397;SDS011;2213;49.720;7.296;2022-07-30T10:20:33;2.70;;;1.77;;
4397;SDS011;2213;49.720;7.296;2022-07-30T10:23:07;2.40;;;1.73;;
4397;SDS011;2213;49.720;7.296;2022-07-30T10:25:41;6.00;;;1.40;;
4397;SDS011;2213;49.720;7.296;2022-07-30T10:28:20;4.37;;;1.43;;
4397;SDS011;2213;49.720;7.296;2022-07-30T10:30:50;4.50;;;1.33;;
4397;SDS011;2213;49.720;7.296;2022-07-30T10:33:25;3.40;;;1.60;;
4397;SDS011;2213;49.720;7.296;2022-07-30T10:36:05;6.30;;;1.70;;
4397;SDS011;2213;49.720;7.296;2022-07-30T10:38:40;1.50;;;1.40;;
4397;SDS011;2213;49.720;7.296;2022-07-30T10:41:23;2.60;;;1.80;;
4397;SDS011;2213;49.720;7.296;2022-07-30T10:47:17;2.80;;;1.40;;
4397;SDS011;2213;49.720;7.296;2022-07-30T10:50:04;2.50;;;1.20;;
4397;SDS011;2213;49.720;7.296;2022-07-30T10:52:44;1.50;;;1.20;;
4397;SDS011;2213;49.720;7.296;2022-07-30T10:55:21;2.17;;;1.50;;
4397;SDS011;2213;49.720;7.296;2022-07-30T10:58:04;3.10;;;1.53;;
4397;SDS011;2213;49.720;7.296;2022-07-30T11:03:26;2.00;;;1.50;;
4397;SDS011;2213;49.720;7.296;2022-07-30T11:06:25;1.93;;;1.30;;
4397;SDS011;2213;49.720;7.296;2022-07-30T11:08:56;1.40;;;1.20;;
4397;SDS011;2213;49.720;7.296;2022-07-30T11:11:45;3.03;;;1.50;;
4397;SDS011;2213;49.720;7.296;2022-07-30T11:17:59;3.60;;;1.53;;
4397;SDS011;2213;49.720;7.296;2022-07-30T11:20:38;1.67;;;1.33;;
4397;SDS011;2213;49.720;7.296;2022-07-30T11:26:08;5.63;;;1.40;;
4397;SDS011;2213;49.720;7.296;2022-07-30T11:28:42;2.13;;;1.43;;
4397;SDS011;2213;49.720;7.296;2022-07-30T11:31:25;3.63;;;1.30;;
4397;SDS011;2213;49.720;7.296;2022-07-30T11:34:25;4.90;;;1.87;;
4397;SDS011;2213;49.720;7.296;2022-07-30T11:37:07;2.57;;;2.13;;
4397;SDS011;2213;49.720;7.296;2022-07-30T11:42:38;2.40;;;1.30;;
4397;SDS011;2213;49.720;7.296;2022-07-30T11:45:23;2.17;;;1.30;;
4397;SDS011;2213;49.720;7.296;2022-07-30T11:47:59;2.17;;;1.60;;
4397;SDS011;2213;49.720;7.296;2022-07-30T11:50:31;1.93;;;1.40;;
4397;SDS011;2213;49.720;7.296;2022-07-30T11:53:03;1.50;;;1.30;;
4397;SDS011;2213;49.720;7.296;2022-07-30T11:55:34;2.60;;;1.30;;
4397;SDS011;2213;49.720;7.296;2022-07-30T11:58:06;2.00;;;1.30;;
4397;SDS011;2213;49.720;7.296;2022-07-30T12:00:39;1.87;;;1.27;;
4397;SDS011;2213;49.720;7.296;2022-07-30T12:03:13;3.87;;;1.40;;
4397;SDS011;2213;49.720;7.296;2022-07-30T12:05:44;8.50;;;1.40;;
4397;SDS011;2213;49.720;7.296;2022-07-30T12:08:19;1.63;;;1.20;;
4397;SDS011;2213;49.720;7.296;2022-07-30T12:11:00;1.20;;;1.00;;
4397;SDS011;2213;49.720;7.296;2022-07-30T12:13:29;1.40;;;1.20;;
4397;SDS011;2213;49.720;7.296;2022-07-30T12:16:11;3.10;;;1.23;;
4397;SDS011;2213;49.720;7.296;2022-07-30T12:18:43;1.33;;;1.10;;
4397;SDS011;2213;49.720;7.296;2022-07-30T12:21:13;1.97;;;1.27;;
4397;SDS011;2213;49.720;7.296;2022-07-30T12:23:42;1.43;;;1.20;;
4397;SDS011;2213;49.720;7.296;2022-07-30T12:26:23;10.20;;;1.60;;
4397;SDS011;2213;49.720;7.296;2022-07-30T12:28:55;2.70;;;1.30;;
4397;SDS011;2213;49.720;7.296;2022-07-30T12:31:27;4.40;;;1.47;;
4397;SDS011;2213;49.720;7.296;2022-07-30T12:33:56;4.47;;;1.60;;
4397;SDS011;2213;49.720;7.296;2022-07-30T12:36:26;3.40;;;1.40;;
4397;SDS011;2213;49.720;7.296;2022-07-30T12:38:57;3.57;;;1.30;;
4397;SDS011;2213;49.720;7.296;2022-07-30T12:41:40;2.30;;;1.50;;
4397;SDS011;2213;49.720;7.296;2022-07-30T12:47:04;1.63;;;1.23;;
4397;SDS011;2213;49.720;7.296;2022-07-30T12:49:49;1.30;;;1.10;;
4397;SDS011;2213;49.720;7.296;2022-07-30T12:52:23;7.53;;;1.67;;
4397;SDS011;2213;49.720;7.296;2022-07-30T12:54:57;2.80;;;1.60;;
4397;SDS011;2213;49.720;7.296;2022-07-30T12:57:27;9.17;;;1.80;;
4397;SDS011;2213;49.720;7.296;2022-07-30T13:00:44;2.27;;;1.43;;
4397;SDS011;2213;49.720;7.296;2022-07-30T13:03:19;1.77;;;1.40;;
4397;SDS011;2213;49.720;7.296;2022-07-30T13:05:49;2.80;;;1.60;;
4397;SDS011;2213;49.720;7.296;2022-07-30T13:08:26;2.90;;;1.77;;
4397;SDS011;2213;49.720;7.296;2022-07-30T13:11:23;2.20;;;1.53;;
4397;SDS011;2213;49.720;7.296;2022-07-30T13:13:54;2.17;;;1.40;;
4397;SDS011;2213;49.720;7.296;2022-07-30T13:16:22;1.80;;;1.20;;
4397;SDS011;2213;49.720;7.296;2022-07-30T13:18:52;1.47;;;1.30;;
4397;SDS011;2213;49.720;7.296;2022-07-30T13:21:21;1.67;;;1.10;;
4397;SDS011;2213;49.720;7.296;2022-07-30T13:23:51;2.13;;;1.27;;
4397;SDS011;2213;49.720;7.296;2022-07-30T13:26:19;5.70;;;1.70;;
4397;SDS011;2213;49.720;7.296;2022-07-30T13:28:48;3.70;;;1.30;;
4397;SDS011;2213;49.720;7.296;2022-07-30T13:31:17;1.97;;;1.20;;
4397;SDS011;2213;49.720;7.296;2022-07-30T13:33:46;16.83;;;1.57;;
4397;SDS011;2213;49.720;7.296;2022-07-30T13:36:16;1.67;;;1.07;;
4397;SDS011;2213;49.720;7.296;2022-07-30T13:38:45;1.57;;;1.17;;
4397;SDS011;2213;49.720;7.296;2022-07-30T13:41:17;3.77;;;1.20;;
4397;SDS011;2213;49.720;7.296;2022-07-30T13:43:46;1.90;;;1.20;;
4397;SDS011;2213;49.720;7.296;2022-07-30T13:46:15;2.03;;;1.30;;
4397;SDS011;2213;49.720;7.296;2022-07-30T13:48:44;4.40;;;1.30;;
4397;SDS011;2213;49.720;7.296;2022-07-30T13:51:13;4.77;;;1.30;;
4397;SDS011;2213;49.720;7.296;2022-07-30T13:53:43;1.47;;;1.37;;
4397;SDS011;2213;49.720;7.296;2022-07-30T13:56:12;5.07;;;1.10;;
4397;SDS011;2213;49.720;7.296;2022-07-30T13:58:45;1.33;;;1.00;;
4397;SDS011;2213;49.720;7.296;2022-07-30T14:01:14;4.90;;;1.13;;
4397;SDS011;2213;49.720;7.296;2022-07-30T14:03:43;2.80;;;1.10;;
4397;SDS011;2213;49.720;7.296;2022-07-30T14:06:16;2.43;;;1.00;;
4397;SDS011;2213;49.720;7.296;2022-07-30T14:08:46;2.10;;;1.37;;
4397;SDS011;2213;49.720;7.296;2022-07-30T14:11:15;2.53;;;1.17;;
4397;SDS011;2213;49.720;7.296;2022-07-30T14:13:43;2.60;;;1.10;;
4397;SDS011;2213;49.720;7.296;2022-07-30T14:16:14;4.60;;;1.27;;
4397;SDS011;2213;49.720;7.296;2022-07-30T14:19:04;1.97;;;1.20;;
4397;SDS011;2213;49.720;7.296;2022-07-30T14:21:47;7.87;;;1.17;;
4397;SDS011;2213;49.720;7.296;2022-07-30T14:24:19;2.70;;;1.00;;
4397;SDS011;2213;49.720;7.296;2022-07-30T14:26:48;1.50;;;1.10;;
4397;SDS011;2213;49.720;7.296;2022-07-30T14:29:23;2.00;;;1.20;;
4397;SDS011;2213;49.720;7.296;2022-07-30T14:31:52;1.37;;;1.10;;
4397;SDS011;2213;49.720;7.296;2022-07-30T14:34:22;1.27;;;1.00;;
4397;SDS011;2213;49.720;7.296;2022-07-30T14:36:50;6.87;;;1.10;;
4397;SDS011;2213;49.720;7.296;2022-07-30T14:39:21;3.50;;;2.30;;
4397;SDS011;2213;49.720;7.296;2022-07-30T14:41:50;2.00;;;1.80;;
4397;SDS011;2213;49.720;7.296;2022-07-30T14:44:21;2.30;;;1.10;;
4397;SDS011;2213;49.720;7.296;2022-07-30T14:46:50;2.83;;;2.60;;
4397;SDS011;2213;49.720;7.296;2022-07-30T14:49:19;3.20;;;1.20;;
4397;SDS011;2213;49.720;7.296;2022-07-30T14:51:49;1.73;;;0.90;;
4397;SDS011;2213;49.720;7.296;2022-07-30T14:54:20;2.07;;;1.00;;
4397;SDS011;2213;49.720;7.296;2022-07-30T14:56:49;3.50;;;1.10;;
4397;SDS011;2213;49.720;7.296;2022-07-30T14:59:23;2.10;;;1.43;;
4397;SDS011;2213;49.720;7.296;2022-07-30T15:01:53;1.50;;;1.37;;
4397;SDS011;2213;49.720;7.296;2022-07-30T15:04:22;1.50;;;1.27;;
4397;SDS011;2213;49.720;7.296;2022-07-30T15:06:50;1.20;;;1.00;;
4397;SDS011;2213;49.720;7.296;2022-07-30T15:09:20;1.23;;;1.03;;
4397;SDS011;2213;49.720;7.296;2022-07-30T15:11:49;1.83;;;1.07;;
4397;SDS011;2213;49.720;7.296;2022-07-30T15:14:35;1.30;;;0.90;;
4397;SDS011;2213;49.720;7.296;2022-07-30T15:17:06;1.97;;;1.00;;
4397;SDS011;2213;49.720;7.296;2022-07-30T15:19:34;1.20;;;1.10;;
4397;SDS011;2213;49.720;7.296;2022-07-30T15:22:16;1.00;;;0.80;;
4397;SDS011;2213;49.720;7.296;2022-07-30T15:24:47;2.73;;;1.10;;
4397;SDS011;2213;49.720;7.296;2022-07-30T15:27:15;1.53;;;1.13;;
4397;SDS011;2213;49.720;7.296;2022-07-30T15:29:45;1.67;;;1.00;;
4397;SDS011;2213;49.720;7.296;2022-07-30T15:32:14;2.07;;;1.27;;
4397;SDS011;2213;49.720;7.296;2022-07-30T15:34:43;1.30;;;1.00;;
4397;SDS011;2213;49.720;7.296;2022-07-30T15:37:12;1.20;;;1.00;;
4397;SDS011;2213;49.720;7.296;2022-07-30T15:39:41;2.00;;;1.07;;
4397;SDS011;2213;49.720;7.296;2022-07-30T15:42:12;3.27;;;1.60;;
4397;SDS011;2213;49.720;7.296;2022-07-30T15:44:41;1.20;;;1.10;;
4397;SDS011;2213;49.720;7.296;2022-07-30T15:47:14;3.40;;;1.27;;
4397;SDS011;2213;49.720;7.296;2022-07-30T15:49:42;1.70;;;1.10;;
4397;SDS011;2213;49.720;7.296;2022-07-30T15:52:11;2.73;;;1.10;;
4397;SDS011;2213;49.720;7.296;2022-07-30T15:54:40;1.60;;;1.00;;
4397;SDS011;2213;49.720;7.296;2022-07-30T15:57:09;2.60;;;1.37;;
4397;SDS011;2213;49.720;7.296;2022-07-30T15:59:39;1.30;;;1.07;;
4397;SDS011;2213;49.720;7.296;2022-07-30T16:02:07;6.70;;;2.27;;
4397;SDS011;2213;49.720;7.296;2022-07-30T16:04:36;2.67;;;1.40;;
4397;SDS011;2213;49.720;7.296;2022-07-30T16:07:06;1.67;;;1.20;;